Euless, TX (76040)

1:39 PM CDT on March 30, 2017 (GMT -0500)
StoneCourt | | Change Station

Elev 591 ft 32.84 °N, 97.10 °W | Updated 12 seconds ago

Clear
Clear
72.5 °F
Feels Like 77 °F
N
0.0
Wind Variable Wind from SE
Gusts 0.0 mph

Today
High -- | Low -- °F
--% Chance of Precip.
Yesterday
High -- | Low -- °F
Precip. -- in
Pressure 29.78 in
Visibility 10.0 miles
Clouds Few 25000 ft
Heat Index 77 °F
Dew Point 41 °F
Humidity 32%
Rainfall 0.00 in
Snow Depth Not available.
7:18 AM 7:47 PM
Waxing Crescent, 10% visible
METAR KDFW 301753Z COR 28016G21KT 10SM FEW250 21/06 A2980 RMK AO2 PK WND 30026/1712 SLP084 T02060056 10206 20118 56015
Pressure 29.78 in
Visibility 10.0 miles
Clouds Few 25000 ft
Heat Index 77 °F
Dew Point 41 °F
Humidity 32%
Rainfall 0.00 in
Snow Depth Not available.
7:18 AM 7:47 PM
Waxing Crescent, 10% visible
METAR KDFW 301753Z COR 28016G21KT 10SM FEW250 21/06 A2980 RMK AO2 PK WND 30026/1712 SLP084 T02060056 10206 20118 56015

Get Severe Weather Alerts

Thanks for signing up!

Be on the lookout for a verification email in your inbox.

You'll start receiving the daily forecast at 8 AM.

×

10-Day Weather Forecast

Almanac

Astronomy

Mar. 30, 2017 Rise Set
Actual Time
Civil Twilight
Nautical Twilight
Astronomical Twilight
Moon
Length of Visible Light
Length of Day
Tomorrow will be .
, % of the Moon is Illuminated

Today's Extremes

State Highs State Lows

Community

WunderPhotos

Upload Photos

1,962,540 photos uploaded!

WunderBlog® & News

Nearby

Air Quality

  Air Quality AQ Index Pollutant
Not available.

Snow Depth

Station Depth Elevation

Earthquake Activity

City Distance Mag. Time & Date
Minimum magnitude displayed is 2.5.

Earthquake Activity

City Distance Mag. Time & Date
Minimum magnitude displayed is 2.5.

Coastal Water Temperatures

Place Temperature

Stations

Nearby Weather Stations

Station Location Temp. Windchill Dew Point Humidity Wind Precip. Elev Updated Type
                   

Watches & Warnings

There are currently no watches in effect.